Time;durP1;ratioP1;P1;durP2;ratioP2;P2;SDS_P1;SDS_P2;PMS_P1;PMS_P2;Temp;Humidity;BMP_temperature;BMP_pressure;BME280_temperature;BME280_humidity;BME280_pressure;Samples;Min_cycle;Max_cycle;Signal;HPM_P1;HPM_P2
2023/04/09 00:04:14;;;;;;;50.20;23.23;;;4.70;99.90;;;;;;12484829;28;20418;-81
2023/04/09 00:10:19;;;;;;;49.47;23.45;;;4.80;99.90;;;;;;12495929;28;20061;-81
2023/04/09 00:16:20;;;;;;;47.58;23.05;;;4.70;99.90;;;;;;12483269;28;20084;-81
2023/04/09 00:22:22;;;;;;;45.72;21.70;;;4.70;99.90;;;;;;12477076;28;20402;-81
2023/04/09 00:28:24;;;;;;;47.85;22.98;;;4.70;99.90;;;;;;12484958;28;20049;-81
2023/04/09 00:34:26;;;;;;;47.90;22.85;;;4.60;99.90;;;;;;12498137;28;20136;-81
2023/04/09 00:40:28;;;;;;;46.45;24.27;;;4.70;99.90;;;;;;12483554;28;20038;-81
2023/04/09 00:46:31;;;;;;;43.67;24.30;;;4.70;99.90;;;;;;12495006;28;20055;-81
2023/04/09 00:52:33;;;;;;;49.63;25.55;;;4.60;99.90;;;;;;12486774;28;20049;-81
2023/04/09 00:58:35;;;;;;;55.92;28.55;;;4.50;99.90;;;;;;12484859;28;20054;-81
2023/04/09 01:04:40;;;;;;;49.78;25.70;;;4.50;99.90;;;;;;12489246;28;20046;-81
2023/04/09 01:10:51;;;;;;;50.90;25.52;;;4.60;99.90;;;;;;12489157;28;20127;-81
2023/04/09 01:17:00;;;;;;;50.95;26.95;;;4.70;99.90;;;;;;12492952;28;20056;-81
2023/04/09 01:23:31;;;;;;;51.55;24.80;;;4.70;99.90;;;;;;12481162;28;20576;-81
2023/04/09 01:29:38;;;;;;;46.72;25.27;;;4.30;99.90;;;;;;12488308;28;20050;-81
2023/04/09 01:35:45;;;;;;;49.00;24.08;;;4.30;99.90;;;;;;12463107;28;20065;-81
2023/04/09 01:41:49;;;;;;;48.13;25.15;;;4.20;99.90;;;;;;12490851;28;20048;-81
2023/04/09 01:47:52;;;;;;;56.10;26.17;;;4.10;99.90;;;;;;12493589;28;20056;-81
2023/04/09 01:53:55;;;;;;;52.63;25.10;;;4.20;99.90;;;;;;12481522;28;20514;-81
2023/04/09 01:59:57;;;;;;;40.80;21.45;;;4.00;99.90;;;;;;12488718;28;20184;-81
2023/04/09 02:06:12;;;;;;;50.05;23.83;;;4.10;99.90;;;;;;12488037;28;20532;-81
2023/04/09 02:12:17;;;;;;;46.33;25.02;;;4.00;99.90;;;;;;12492136;28;20054;-81
2023/04/09 02:18:23;;;;;;;44.55;22.23;;;4.10;99.90;;;;;;12489095;28;20142;-81
2023/04/09 02:24:25;;;;;;;49.65;24.40;;;4.00;99.90;;;;;;12486780;28;20053;-81
2023/04/09 02:30:27;;;;;;;42.88;22.23;;;3.90;99.90;;;;;;12494020;28;20103;-82
2023/04/09 02:36:29;;;;;;;46.47;23.88;;;3.80;99.90;;;;;;12496312;28;20053;-81
2023/04/09 02:42:31;;;;;;;46.92;23.80;;;3.80;99.90;;;;;;12496874;28;20118;-81
2023/04/09 02:48:33;;;;;;;47.85;24.67;;;3.60;99.90;;;;;;12508647;28;20050;-82
2023/04/09 02:54:35;;;;;;;52.67;25.92;;;3.50;99.90;;;;;;12491263;28;20144;-81
2023/04/09 03:00:37;;;;;;;44.63;24.30;;;3.40;99.90;;;;;;12489662;28;20049;-81
2023/04/09 03:06:39;;;;;;;56.47;26.63;;;3.50;99.90;;;;;;12486020;28;20522;-81
2023/04/09 03:12:43;;;;;;;54.75;28.33;;;3.50;99.90;;;;;;12489463;28;20065;-81
2023/04/09 03:18:45;;;;;;;54.07;26.03;;;3.50;99.90;;;;;;12497387;28;20049;-81
2023/04/09 03:24:47;;;;;;;50.47;24.83;;;3.50;99.90;;;;;;12486772;28;20130;-80
2023/04/09 03:30:49;;;;;;;50.10;25.70;;;3.40;99.90;;;;;;12491190;28;20113;-81
2023/04/09 03:36:51;;;;;;;51.88;25.45;;;3.30;99.90;;;;;;12466478;28;20053;-80
2023/04/09 03:42:56;;;;;;;47.67;22.95;;;3.30;99.90;;;;;;12495773;28;20485;-82
2023/04/09 03:48:58;;;;;;;54.72;26.13;;;3.30;99.90;;;;;;12490291;28;20129;-81
2023/04/09 03:55:02;;;;;;;57.38;28.75;;;3.50;99.90;;;;;;12500414;28;20055;-81
2023/04/09 04:01:04;;;;;;;59.40;27.23;;;3.20;99.90;;;;;;12501582;28;20132;-81
2023/04/09 04:07:07;;;;;;;52.35;25.58;;;3.20;99.90;;;;;;12513524;28;20196;-80
2023/04/09 04:13:09;;;;;;;52.40;26.55;;;3.10;99.90;;;;;;12503247;28;20522;-80
2023/04/09 04:19:11;;;;;;;52.28;26.70;;;3.00;99.90;;;;;;12484777;28;20045;-80
2023/04/09 04:25:13;;;;;;;54.55;26.90;;;3.00;99.90;;;;;;12418363;28;20049;-81
2023/04/09 04:31:17;;;;;;;51.83;26.88;;;2.70;99.90;;;;;;12470429;28;20172;-82
2023/04/09 04:37:20;;;;;;;59.95;28.75;;;2.60;99.90;;;;;;12466530;28;20054;-81
2023/04/09 04:43:22;;;;;;;61.25;29.15;;;2.70;99.90;;;;;;12512964;28;20053;-80
2023/04/09 04:49:24;;;;;;;54.33;27.55;;;2.70;99.90;;;;;;12490006;28;20049;-80
2023/04/09 04:55:25;;;;;;;48.42;24.33;;;2.50;99.90;;;;;;12484150;28;20046;-80
2023/04/09 05:01:27;;;;;;;56.40;27.20;;;2.70;99.90;;;;;;12471742;28;20042;-81
2023/04/09 05:07:30;;;;;;;59.72;28.92;;;2.70;99.90;;;;;;12477351;28;20060;-80
2023/04/09 05:13:32;;;;;;;50.40;26.33;;;2.90;99.90;;;;;;12480673;28;20049;-81
2023/04/09 05:19:34;;;;;;;48.38;24.33;;;3.60;99.90;;;;;;12502210;28;20053;-81
2023/04/09 05:25:37;;;;;;;47.50;25.33;;;4.70;99.90;;;;;;12476315;28;20054;-81
2023/04/09 05:31:41;;;;;;;48.67;24.45;;;5.40;99.90;;;;;;12476449;28;20469;-81
2023/04/09 05:37:43;;;;;;;44.40;23.80;;;5.20;99.90;;;;;;12465586;28;20153;-80
2023/04/09 05:43:45;;;;;;;88.00;27.52;;;4.90;99.90;;;;;;12483709;28;20037;-82
2023/04/09 05:49:47;;;;;;;207.38;28.60;;;4.90;99.90;;;;;;12493099;28;20053;-81
2023/04/09 05:55:49;;;;;;;157.70;26.58;;;4.30;99.90;;;;;;12481077;28;20172;-81
2023/04/09 06:01:53;;;;;;;72.25;25.27;;;4.40;99.90;;;;;;12492950;28;20073;-82
2023/04/09 06:07:55;;;;;;;182.80;24.85;;;4.50;99.90;;;;;;12495254;28;20053;-81
2023/04/09 06:13:57;;;;;;;54.25;24.02;;;4.40;99.90;;;;;;12477906;28;20548;-82
2023/04/09 06:19:59;;;;;;;309.10;27.40;;;4.30;99.90;;;;;;12468278;28;20048;-81
2023/04/09 06:26:01;;;;;;;226.50;28.25;;;3.90;99.90;;;;;;12475289;28;20041;-81
2023/04/09 06:32:04;;;;;;;222.85;28.77;;;3.70;99.90;;;;;;12482715;28;20205;-81
2023/04/09 06:38:06;;;;;;;253.90;26.48;;;3.80;99.90;;;;;;12484023;28;20084;-82
2023/04/09 06:44:08;;;;;;;109.30;24.25;;;3.90;99.90;;;;;;12477525;28;20049;-82
2023/04/09 06:50:10;;;;;;;94.63;23.65;;;4.50;99.90;;;;;;12488300;28;20417;-82
2023/04/09 06:56:12;;;;;;;143.38;28.45;;;4.90;99.90;;;;;;12477347;28;20045;-82
2023/04/09 07:02:14;;;;;;;162.65;24.00;;;4.80;99.90;;;;;;12482850;28;20058;-82
2023/04/09 07:08:17;;;;;;;56.47;22.40;;;4.90;99.90;;;;;;12472101;28;20058;-82
2023/04/09 07:14:19;;;;;;;161.48;25.17;;;4.80;99.90;;;;;;12494848;28;20046;-82
2023/04/09 07:20:20;;;;;;;71.45;24.63;;;4.30;99.90;;;;;;12499675;28;20498;-82
2023/04/09 07:26:23;;;;;;;63.67;24.73;;;4.70;99.90;;;;;;12485845;28;20057;-83
2023/04/09 07:32:29;;;;;;;91.18;25.45;;;4.90;99.90;;;;;;12511353;28;20045;-82
2023/04/09 07:38:32;;;;;;;63.85;24.75;;;4.90;99.90;;;;;;12520491;28;20053;-83
2023/04/09 07:44:37;;;;;;;50.47;23.30;;;5.00;99.90;;;;;;12532163;28;20029;-84
2023/04/09 07:50:40;;;;;;;48.10;24.00;;;5.10;99.90;;;;;;12528527;28;20046;-83
2023/04/09 07:56:42;;;;;;;44.10;23.48;;;5.40;99.90;;;;;;12535957;28;20050;-83
2023/04/09 08:02:44;;;;;;;41.53;24.40;;;5.60;99.90;;;;;;12497544;28;20061;-82
2023/04/09 08:08:47;;;;;;;42.63;23.52;;;6.90;99.90;;;;;;12509528;28;20057;-82
2023/04/09 08:14:49;;;;;;;44.03;24.50;;;7.10;99.90;;;;;;12515459;28;20045;-82
2023/04/09 08:20:51;;;;;;;40.15;22.58;;;7.10;99.90;;;;;;12503546;28;20133;-81
2023/04/09 08:26:53;;;;;;;40.72;23.52;;;7.60;99.90;;;;;;12498143;28;20140;-81
2023/04/09 08:32:55;;;;;;;40.83;24.25;;;8.00;99.90;;;;;;12506879;28;20073;-82
2023/04/09 08:39:00;;;;;;;37.78;23.10;;;8.20;99.90;;;;;;12504683;28;20056;-81
2023/04/09 08:45:05;;;;;;;36.58;22.70;;;8.30;99.90;;;;;;12513534;28;20049;-82
2023/04/09 08:51:13;;;;;;;36.92;23.13;;;8.40;99.90;;;;;;12492021;28;20049;-82
2023/04/09 08:57:15;;;;;;;38.00;23.30;;;8.40;99.90;;;;;;12503702;28;20045;-82
2023/04/09 09:03:17;;;;;;;33.20;20.65;;;8.50;99.90;;;;;;12501801;28;20042;-83
2023/04/09 09:09:19;;;;;;;33.97;21.23;;;8.70;99.90;;;;;;12508785;28;20054;-82
2023/04/09 09:15:28;;;;;;;31.88;20.80;;;8.80;99.90;;;;;;12519320;28;20053;-82
2023/04/09 09:21:32;;;;;;;29.77;19.00;;;9.00;99.90;;;;;;12513719;28;20478;-82
2023/04/09 09:27:39;;;;;;;27.90;19.33;;;9.30;99.90;;;;;;12509380;28;20091;-82
2023/04/09 09:33:41;;;;;;;32.75;21.05;;;9.60;99.90;;;;;;12492304;28;20056;-82
2023/04/09 09:39:44;;;;;;;27.67;18.98;;;9.90;99.90;;;;;;12519818;28;20049;-82
2023/04/09 09:45:47;;;;;;;29.92;18.50;;;10.10;99.90;;;;;;12491536;28;20124;-82
2023/04/09 09:51:51;;;;;;;27.70;19.02;;;10.40;99.90;;;;;;12516981;28;20041;-82
2023/04/09 09:57:55;;;;;;;27.42;18.70;;;10.80;99.90;;;;;;12493630;28;20159;-83
2023/04/09 10:03:59;;;;;;;24.65;16.98;;;11.20;99.90;;;;;;12509288;28;20155;-83
2023/04/09 10:10:02;;;;;;;;;;;11.50;99.90;;;;;;12507617;28;20053;-82
2023/04/09 10:16:07;;;;;;;29.73;19.17;;;11.80;99.90;;;;;;12519300;28;19949;-83
2023/04/09 10:22:12;;;;;;;28.27;18.67;;;11.30;99.90;;;;;;12486951;28;20059;-83
2023/04/09 10:28:15;;;;;;;;;;;11.60;99.90;;;;;;12526352;28;20057;-82
2023/04/09 10:34:19;;;;;;;29.33;18.45;;;12.20;99.90;;;;;;12527143;28;19943;-83
2023/04/09 10:40:21;;;;;;;23.33;15.85;;;12.00;99.90;;;;;;12505844;28;20460;-82
2023/04/09 10:46:27;;;;;;;22.70;15.50;;;11.40;99.90;;;;;;12508925;28;20052;-83
2023/04/09 10:52:33;;;;;;;25.30;14.80;;;11.50;99.90;;;;;;12503871;28;20050;-83
2023/04/09 10:58:37;;;;;;;18.98;13.10;;;11.50;99.90;;;;;;12506016;28;20140;-82
2023/04/09 11:04:58;;;;;;;17.97;12.27;;;11.50;99.90;;;;;;12511805;28;20524;-82
2023/04/09 11:11:01;;;;;;;18.02;11.63;;;11.50;99.90;;;;;;12504614;28;20296;-83
2023/04/09 11:17:03;;;;;;;14.93;10.30;;;11.60;99.90;;;;;;12516009;28;20080;-83
2023/04/09 11:23:05;;;;;;;15.30;10.70;;;11.80;99.90;;;;;;12502905;28;20045;-83
2023/04/09 11:29:08;;;;;;;14.98;10.23;;;11.90;99.90;;;;;;12519391;28;20053;-83
2023/04/09 11:35:14;;;;;;;14.45;9.23;;;12.70;99.90;;;;;;12518284;28;20072;-83
2023/04/09 11:41:16;;;;;;;14.27;10.10;;;12.70;99.90;;;;;;12527212;28;20042;-83
2023/04/09 11:47:19;;;;;;;13.38;9.23;;;12.40;99.90;;;;;;12536946;28;20065;-83
2023/04/09 11:53:23;;;;;;;14.00;8.48;;;12.50;99.90;;;;;;12525836;28;20045;-82
2023/04/09 11:59:26;;;;;;;;;;;12.10;99.90;;;;;;12506967;28;20399;-83
2023/04/09 12:05:33;;;;;;;12.35;8.35;;;12.20;99.90;;;;;;12498773;28;19921;-81
2023/04/09 12:11:36;;;;;;;12.65;8.45;;;12.00;99.90;;;;;;12527497;28;20057;-82
2023/04/09 12:17:38;;;;;;;12.90;8.88;;;12.20;99.90;;;;;;12543876;28;20041;-83
2023/04/09 12:23:41;;;;;;;11.65;8.68;;;12.40;99.90;;;;;;12536130;28;20109;-82
2023/04/09 12:29:43;;;;;;;13.77;9.55;;;12.30;99.90;;;;;;12543312;28;20053;-82
2023/04/09 12:35:45;;;;;;;14.75;10.02;;;11.80;99.90;;;;;;12553110;28;20048;-83
2023/04/09 12:41:47;;;;;;;17.10;10.73;;;11.90;99.90;;;;;;12541423;28;20049;-83
2023/04/09 12:47:49;;;;;;;13.38;9.10;;;11.90;99.90;;;;;;12525717;28;20093;-83
2023/04/09 12:53:51;;;;;;;13.20;9.75;;;11.90;99.90;;;;;;12536696;28;20060;-82
2023/04/09 12:59:55;;;;;;;12.57;8.52;;;12.00;99.90;;;;;;12540348;28;20048;-83
2023/04/09 13:05:57;;;;;;;13.93;9.07;;;12.20;99.90;;;;;;12518226;28;20080;-82
2023/04/09 13:11:58;;;;;;;14.73;9.38;;;12.10;99.90;;;;;;12538288;28;20122;-83
2023/04/09 13:18:00;;;;;;;15.25;9.73;;;11.90;99.90;;;;;;12544435;28;20124;-83
2023/04/09 13:24:03;;;;;;;14.13;9.63;;;11.90;99.90;;;;;;12515492;28;20057;-82
2023/04/09 13:30:05;;;;;;;13.82;9.10;;;11.50;99.90;;;;;;12526100;28;20568;-82
2023/04/09 13:36:07;;;;;;;15.15;10.00;;;11.60;99.90;;;;;;12510570;28;20446;-82
2023/04/09 13:42:09;;;;;;;15.98;11.55;;;11.50;99.90;;;;;;12533523;28;20097;-82
2023/04/09 13:48:15;;;;;;;16.70;11.43;;;11.40;99.90;;;;;;12524695;28;20054;-82
2023/04/09 13:54:17;;;;;;;18.40;10.93;;;11.50;99.90;;;;;;12516096;28;20046;-81
2023/04/09 14:00:20;;;;;;;17.95;11.48;;;11.60;99.90;;;;;;12517551;28;20046;-82
2023/04/09 14:06:25;;;;;;;16.15;11.20;;;11.70;99.90;;;;;;12528909;28;20042;-82
2023/04/09 14:12:27;;;;;;;16.17;10.68;;;11.80;99.90;;;;;;12536084;28;20079;-82
2023/04/09 14:18:29;;;;;;;16.17;10.82;;;12.00;99.90;;;;;;12536024;28;20076;-82
2023/04/09 14:24:38;;;;;;;15.57;10.57;;;12.20;99.90;;;;;;12527464;28;20076;-82
2023/04/09 14:30:44;;;;;;;15.50;10.40;;;12.30;99.90;;;;;;12527032;28;20045;-83
2023/04/09 14:36:46;;;;;;;15.68;10.38;;;12.00;99.90;;;;;;12520780;28;20041;-82
2023/04/09 14:42:49;;;;;;;15.15;10.32;;;12.30;99.90;;;;;;12526826;28;20055;-82
2023/04/09 14:48:50;;;;;;;16.38;10.98;;;12.30;99.90;;;;;;12528409;28;20940;-83
2023/04/09 14:54:52;;;;;;;15.23;10.60;;;12.10;99.90;;;;;;12506373;28;20052;-83
2023/04/09 15:00:55;;;;;;;16.48;10.05;;;11.90;99.90;;;;;;12493348;28;20034;-83
2023/04/09 15:06:57;;;;;;;11.82;8.23;;;12.00;99.90;;;;;;12502108;28;20536;-83
2023/04/09 15:13:01;;;;;;;12.18;7.88;;;12.50;99.90;;;;;;12508480;28;20050;-83
2023/04/09 15:19:03;;;;;;;12.73;8.10;;;13.20;99.90;;;;;;12537229;28;20052;-83
2023/04/09 15:25:06;;;;;;;10.98;7.05;;;12.90;99.90;;;;;;12524251;28;20102;-83
2023/04/09 15:31:07;;;;;;;12.20;7.80;;;12.80;99.90;;;;;;12521891;28;20057;-83
2023/04/09 15:37:10;;;;;;;12.43;8.85;;;12.70;99.90;;;;;;12505422;28;20045;-83
2023/04/09 15:43:14;;;;;;;14.05;8.75;;;12.60;99.90;;;;;;12527391;28;20053;-84
2023/04/09 15:49:17;;;;;;;13.23;9.32;;;12.50;99.90;;;;;;12536558;28;20054;-82
2023/04/09 15:55:19;;;;;;;13.15;8.82;;;12.20;99.90;;;;;;12521353;28;20046;-82
2023/04/09 16:01:21;;;;;;;13.80;8.75;;;12.10;99.90;;;;;;12508369;28;20046;-83
2023/04/09 16:07:23;;;;;;;13.13;8.45;;;12.10;99.90;;;;;;12514802;28;20066;-83
2023/04/09 16:13:25;;;;;;;14.77;9.15;;;12.00;99.90;;;;;;12501481;28;20098;-83
2023/04/09 16:19:27;;;;;;;14.52;9.48;;;11.90;99.90;;;;;;12529048;28;20049;-83
2023/04/09 16:25:29;;;;;;;19.10;9.70;;;11.80;99.90;;;;;;12528949;28;20065;-82
2023/04/09 16:31:31;;;;;;;14.25;9.18;;;11.90;99.90;;;;;;12501081;28;20084;-81
2023/04/09 16:37:34;;;;;;;15.07;9.30;;;11.90;99.90;;;;;;12515149;28;20053;-81
2023/04/09 16:43:36;;;;;;;12.80;8.55;;;11.90;99.90;;;;;;12509774;28;20402;-81
2023/04/09 16:49:39;;;;;;;15.23;8.90;;;11.80;99.90;;;;;;12504688;28;20069;-82
2023/04/09 16:55:43;;;;;;;12.70;8.73;;;11.60;99.90;;;;;;12504260;28;20072;-82
2023/04/09 17:01:46;;;;;;;13.80;8.23;;;11.60;99.90;;;;;;12498929;28;20077;-81
2023/04/09 17:07:48;;;;;;;13.13;8.73;;;11.40;99.90;;;;;;12503769;28;20057;-82
2023/04/09 17:13:50;;;;;;;13.93;8.20;;;11.20;99.90;;;;;;12515468;28;20482;-81
2023/04/09 17:19:52;;;;;;;13.52;8.90;;;11.10;99.90;;;;;;12497525;28;20474;-81
2023/04/09 17:25:54;;;;;;;12.60;8.52;;;10.80;99.90;;;;;;12509269;28;20099;-82
2023/04/09 17:31:57;;;;;;;13.50;8.95;;;10.70;99.90;;;;;;12514921;28;20566;-82
2023/04/09 17:38:00;;;;;;;13.75;8.45;;;10.60;99.90;;;;;;12504039;28;20050;-82
2023/04/09 17:44:02;;;;;;;12.85;8.40;;;10.40;99.90;;;;;;12512212;28;20038;-82
2023/04/09 17:50:09;;;;;;;14.40;9.65;;;10.30;99.90;;;;;;12495209;28;20050;-81
2023/04/09 17:56:16;;;;;;;15.68;9.90;;;10.00;99.90;;;;;;12474472;28;20045;-82
2023/04/09 18:02:20;;;;;;;14.57;9.57;;;9.70;99.90;;;;;;12523536;28;20046;-82
2023/04/09 18:08:22;;;;;;;;;;;9.60;99.90;;;;;;12509194;28;20064;-82
2023/04/09 18:14:24;;;;;;;19.00;12.50;;;9.30;99.90;;;;;;12522769;28;19988;-82
2023/04/09 18:20:27;;;;;;;28.42;17.80;;;9.00;99.90;;;;;;12513777;28;20053;-81
2023/04/09 18:26:32;;;;;;;36.22;21.42;;;8.90;99.90;;;;;;12512523;28;20285;-81
2023/04/09 18:32:33;;;;;;;;;;;8.80;99.90;;;;;;12517791;28;20110;-81
2023/04/09 18:38:35;;;;;;;18.95;11.13;;;8.80;99.90;;;;;;12533214;28;19922;-81
2023/04/09 18:44:38;;;;;;;23.58;13.43;;;8.50;99.90;;;;;;12523619;28;20099;-81
2023/04/09 18:50:40;;;;;;;24.38;13.38;;;8.30;99.90;;;;;;12503874;28;20054;-81
2023/04/09 18:56:42;;;;;;;22.00;12.20;;;8.20;99.90;;;;;;12508990;28;20049;-82
2023/04/09 19:02:48;;;;;;;23.00;12.63;;;8.20;99.90;;;;;;12504345;28;20104;-81
2023/04/09 19:08:56;;;;;;;22.73;14.15;;;8.20;99.90;;;;;;12533576;28;20088;-82
2023/04/09 19:14:59;;;;;;;22.10;14.05;;;8.10;99.90;;;;;;12521310;28;20076;-81
2023/04/09 19:21:01;;;;;;;25.00;14.50;;;7.80;99.90;;;;;;12512214;28;20061;-81
2023/04/09 19:27:13;;;;;;;27.20;14.27;;;7.60;99.90;;;;;;12515229;28;20059;-81
2023/04/09 19:33:14;;;;;;;25.42;13.20;;;7.60;99.90;;;;;;12513432;28;20061;-81
2023/04/09 19:39:17;;;;;;;22.52;13.95;;;7.30;99.90;;;;;;12530691;28;20053;-81
2023/04/09 19:45:19;;;;;;;25.60;14.15;;;7.30;99.90;;;;;;12521319;28;20045;-81
2023/04/09 19:51:21;;;;;;;24.90;13.70;;;7.20;99.90;;;;;;12534282;28;20073;-80
2023/04/09 19:57:25;;;;;;;22.58;13.98;;;7.10;99.90;;;;;;12527792;28;20050;-80
2023/04/09 20:03:27;;;;;;;25.98;13.80;;;7.10;99.90;;;;;;12506174;28;20481;-81
2023/04/09 20:09:31;;;;;;;25.48;15.35;;;6.90;99.90;;;;;;12513367;28;20062;-80
2023/04/09 20:15:36;;;;;;;25.92;16.50;;;6.80;99.90;;;;;;12520027;28;20092;-80
2023/04/09 20:21:38;;;;;;;24.70;15.20;;;6.60;99.90;;;;;;12517094;28;20042;-81
2023/04/09 20:27:40;;;;;;;27.83;16.17;;;6.50;99.90;;;;;;12491939;28;20042;-80
2023/04/09 20:33:43;;;;;;;29.02;16.60;;;6.50;99.90;;;;;;12519623;28;20053;-80
2023/04/09 20:39:45;;;;;;;28.20;17.33;;;6.60;99.90;;;;;;12530257;28;20053;-81
2023/04/09 20:45:47;;;;;;;32.58;18.25;;;6.70;99.90;;;;;;12536165;28;20033;-82
2023/04/09 20:51:51;;;;;;;33.40;20.60;;;6.80;99.90;;;;;;12537779;28;20065;-83
2023/04/09 20:57:57;;;;;;;33.20;19.07;;;6.80;99.90;;;;;;12545788;28;20049;-81
2023/04/09 21:03:59;;;;;;;29.48;17.75;;;7.00;99.90;;;;;;12543435;28;20041;-81
2023/04/09 21:10:01;;;;;;;33.33;18.13;;;7.30;99.90;;;;;;12544873;28;20117;-81
2023/04/09 21:16:03;;;;;;;32.85;17.80;;;7.50;99.90;;;;;;12540662;28;20069;-82
2023/04/09 21:22:06;;;;;;;32.47;16.92;;;7.40;99.90;;;;;;12534575;28;20045;-81
2023/04/09 21:28:08;;;;;;;31.55;16.73;;;7.40;99.90;;;;;;12534462;28;20056;-81
2023/04/09 21:34:10;;;;;;;29.05;16.15;;;7.30;99.90;;;;;;12526817;28;20485;-81
2023/04/09 21:40:12;;;;;;;57.40;30.10;;;7.30;99.90;;;;;;12531264;28;20042;-81
2023/04/09 21:46:14;;;;;;;35.75;18.77;;;7.40;99.90;;;;;;12529304;28;20072;-81
2023/04/09 21:52:20;;;;;;;31.10;16.00;;;7.30;99.90;;;;;;12533818;28;20136;-83
2023/04/09 21:58:21;;;;;;;;;;;7.10;99.90;;;;;;12525072;28;20077;-81
2023/04/09 22:04:23;;;;;;;30.92;17.23;;;7.00;99.90;;;;;;12524336;28;19984;-82
2023/04/09 22:10:26;;;;;;;36.33;19.70;;;6.90;99.90;;;;;;12544647;28;20057;-82
2023/04/09 22:16:28;;;;;;;30.13;17.23;;;7.00;99.90;;;;;;12538485;28;20080;-81
2023/04/09 22:22:31;;;;;;;27.40;17.20;;;6.80;99.90;;;;;;12539584;28;20045;-81
2023/04/09 22:28:33;;;;;;;32.75;18.10;;;6.90;99.90;;;;;;12520554;28;20061;-81
2023/04/09 22:34:35;;;;;;;34.65;18.83;;;6.90;99.90;;;;;;12517508;28;20141;-82
2023/04/09 22:40:40;;;;;;;30.83;19.05;;;6.90;99.90;;;;;;12537693;28;20113;-81
2023/04/09 22:46:42;;;;;;;30.92;17.23;;;7.10;99.90;;;;;;12529296;28;20042;-81
2023/04/09 22:52:45;;;;;;;29.60;17.90;;;6.90;99.90;;;;;;12526304;28;20050;-81
2023/04/09 22:58:47;;;;;;;39.50;21.02;;;6.90;99.90;;;;;;12528262;28;20046;-81
2023/04/09 23:04:50;;;;;;;34.08;20.75;;;7.10;99.90;;;;;;12526710;28;20106;-81
2023/04/09 23:10:53;;;;;;;33.78;20.15;;;7.20;99.90;;;;;;12529645;28;20057;-82
2023/04/09 23:16:55;;;;;;;41.05;22.33;;;7.30;99.90;;;;;;12532217;28;20041;-81
2023/04/09 23:22:57;;;;;;;40.13;22.63;;;7.00;99.90;;;;;;12520514;28;20049;-82
2023/04/09 23:29:01;;;;;;;46.13;24.27;;;6.60;99.90;;;;;;12518473;28;20059;-81
2023/04/09 23:35:03;;;;;;;41.33;23.58;;;6.20;99.90;;;;;;12523458;28;20069;-82
2023/04/09 23:41:05;;;;;;;42.95;23.35;;;6.10;99.90;;;;;;12517903;28;20114;-81
2023/04/09 23:47:07;;;;;;;41.22;23.27;;;6.10;99.90;;;;;;12528482;28;20037;-81
2023/04/09 23:53:10;;;;;;;38.13;20.92;;;6.30;99.90;;;;;;12527293;28;20055;-81
2023/04/09 23:59:12;;;;;;;35.08;20.13;;;6.60;99.90;;;;;;12534107;28;20033;-82
